Time;durP1;ratioP1;P1;durP2;ratioP2;P2;SDS_P1;SDS_P2;PMS_P1;PMS_P2;Temp;Humidity;BMP_temperature;BMP_pressure;BME280_temperature;BME280_humidity;BME280_pressure;Samples;Min_cycle;Max_cycle;Signal;HPM_P1;HPM_P2
2022/03/23 00:00:21;;;;;;;12.13;6.88;;;;;;;7.79;25.08;100096.28;5132612;28;20039;-93
2022/03/23 00:02:49;;;;;;;9.82;6.40;;;;;;;7.84;24.52;100109.53;5133655;27;20043;-92
2022/03/23 00:05:17;;;;;;;9.27;6.60;;;;;;;7.84;24.89;100112.19;5132555;28;20040;-92
2022/03/23 00:07:43;;;;;;;11.23;6.85;;;;;;;7.75;24.81;100101.53;5133455;28;20093;-94
2022/03/23 00:10:10;;;;;;;13.55;6.80;;;;;;;7.82;24.72;100101.56;5133385;28;20054;-95
2022/03/23 00:12:36;;;;;;;10.80;7.25;;;;;;;7.74;25.02;100084.78;5131988;27;20043;-94
2022/03/23 00:15:03;;;;;;;13.55;7.70;;;;;;;7.86;24.55;100085.72;5130819;28;20085;-92
2022/03/23 00:17:29;;;;;;;13.23;6.90;;;;;;;7.86;24.92;100101.59;5132348;28;20484;-93
2022/03/23 00:19:56;;;;;;;12.52;7.22;;;;;;;7.82;25.30;100100.69;5132331;28;20039;-95
2022/03/23 00:22:27;;;;;;;12.25;7.78;;;;;;;7.79;24.58;100077.72;5121103;27;20046;-93
2022/03/23 00:24:56;;;;;;;12.50;7.75;;;;;;;7.70;25.11;100084.72;5118639;28;20031;-95
2022/03/23 00:27:22;;;;;;;12.23;7.32;;;;;;;7.66;25.57;100105.03;5118726;28;20507;-94
2022/03/23 00:29:48;;;;;;;12.00;7.45;;;;;;;7.43;25.83;100094.28;5129180;27;20040;-94
2022/03/23 00:32:14;;;;;;;13.27;7.70;;;;;;;7.23;26.55;100086.19;5115610;28;20389;-94
2022/03/23 00:34:40;;;;;;;14.68;8.00;;;;;;;7.33;26.12;100076.56;5119134;27;20603;-95
2022/03/23 00:37:07;;;;;;;10.93;7.05;;;;;;;7.38;26.24;100081.00;5118251;28;20063;-95
2022/03/23 00:39:33;;;;;;;12.18;6.95;;;;;;;7.28;28.07;100083.59;5117860;28;20135;-95
2022/03/23 00:41:59;;;;;;;12.30;7.70;;;;;;;7.30;26.58;100092.41;5118118;28;20500;-94
2022/03/23 00:44:25;;;;;;;13.77;7.60;;;;;;;7.20;27.14;100073.84;5117826;28;20073;-93
2022/03/23 00:46:51;;;;;;;10.80;7.00;;;;;;;7.18;27.90;100099.41;5115660;28;20071;-93
2022/03/23 00:49:17;;;;;;;15.55;8.80;;;;;;;6.51;33.04;100072.34;5097711;28;20082;-95
2022/03/23 00:51:43;;;;;;;16.33;9.43;;;;;;;6.12;34.77;100085.13;5100045;27;20117;-96
2022/03/23 00:54:11;;;;;;;15.82;8.27;;;;;;;5.76;36.33;100091.66;5138662;27;20488;-94
2022/03/23 00:56:37;;;;;;;15.95;9.23;;;;;;;5.33;37.69;100082.25;5138325;27;20492;-95
2022/03/23 00:59:03;;;;;;;16.52;9.43;;;;;;;5.17;38.61;100106.63;5123449;27;20369;-94
2022/03/23 01:01:29;;;;;;;13.93;8.93;;;;;;;4.80;39.52;100098.97;5117071;28;20075;-95
2022/03/23 01:03:55;;;;;;;14.82;9.65;;;;;;;4.70;40.55;100092.63;5118010;28;20066;-95
2022/03/23 01:06:21;;;;;;;19.13;10.45;;;;;;;4.57;40.38;100084.50;5118387;28;20043;-94
2022/03/23 01:08:48;;;;;;;18.48;10.15;;;;;;;4.64;38.89;100104.81;5118027;28;20040;-96
2022/03/23 01:11:15;;;;;;;18.40;10.32;;;;;;;4.48;40.37;100088.72;5117514;28;20051;-95
2022/03/23 01:13:41;;;;;;;15.38;8.90;;;;;;;4.59;38.91;100093.31;5117362;27;20071;-94
2022/03/23 01:16:07;;;;;;;14.45;8.65;;;;;;;4.74;37.37;100083.94;5117262;28;20048;-94
2022/03/23 01:18:33;;;;;;;15.65;9.55;;;;;;;5.21;36.14;100097.91;5117066;28;20472;-94
2022/03/23 01:21:01;;;;;;;14.27;7.82;;;;;;;5.05;36.19;100062.47;5117173;28;20393;-94
2022/03/23 01:23:26;;;;;;;13.88;7.93;;;;;;;5.76;31.02;100064.38;5117343;28;20047;-94
2022/03/23 01:25:53;;;;;;;13.05;8.30;;;;;;;6.37;28.86;100051.03;5118014;28;20047;-94
2022/03/23 01:28:20;;;;;;;12.57;7.57;;;;;;;6.69;28.61;100053.13;5117505;28;20054;-95
2022/03/23 01:30:46;;;;;;;13.13;8.48;;;;;;;6.72;28.71;100054.06;5117423;28;20413;-95
2022/03/23 01:33:12;;;;;;;15.68;8.60;;;;;;;6.51;32.40;100048.56;5115718;28;20036;-96
2022/03/23 01:35:38;;;;;;;13.43;8.52;;;;;;;6.21;32.46;100054.41;5117428;28;20067;-95
2022/03/23 01:38:04;;;;;;;16.63;8.98;;;;;;;5.67;35.40;100056.34;5117470;28;20051;-95
2022/03/23 01:40:30;;;;;;;17.65;10.00;;;;;;;5.42;37.78;100082.41;5118739;28;20134;-95
2022/03/23 01:42:56;;;;;;;15.10;9.68;;;;;;;4.99;38.97;100065.91;5118119;28;20036;-95
2022/03/23 01:45:23;;;;;;;15.65;9.25;;;;;;;4.66;39.82;100064.47;5117812;28;20048;-96
2022/03/23 01:47:49;;;;;;;16.45;9.77;;;;;;;4.29;41.47;100061.19;5117139;28;20048;-95
2022/03/23 01:50:15;;;;;;;16.90;10.20;;;;;;;4.08;42.13;100066.03;5117132;28;20044;-95
2022/03/23 01:52:41;;;;;;;20.67;10.07;;;;;;;4.01;42.49;100072.91;5117188;28;20382;-95
2022/03/23 01:55:09;;;;;;;17.27;10.05;;;;;;;3.94;43.19;100064.84;5117661;28;20050;-95
2022/03/23 01:57:35;;;;;;;18.70;9.73;;;;;;;3.89;43.27;100070.91;5117306;28;20043;-93
2022/03/23 02:00:03;;;;;;;16.42;10.05;;;;;;;3.69;43.37;100064.34;5116738;28;20035;-94
2022/03/23 02:02:30;;;;;;;15.60;9.60;;;;;;;3.55;44.88;100068.41;5117291;28;20046;-94
2022/03/23 02:04:56;;;;;;;15.55;8.98;;;;;;;3.54;44.34;100095.56;5116668;28;20067;-95
2022/03/23 02:07:24;;;;;;;15.80;8.35;;;;;;;3.40;44.51;100084.72;5116358;28;20074;-95
2022/03/23 02:09:50;;;;;;;16.17;9.27;;;;;;;3.34;43.30;100109.16;5116984;28;20039;-94
2022/03/23 02:12:16;;;;;;;14.55;8.00;;;;;;;3.18;43.79;100091.22;5116143;28;20445;-94
2022/03/23 02:14:42;;;;;;;15.55;8.77;;;;;;;3.07;44.48;100078.72;5116172;28;20063;-96
2022/03/23 02:17:08;;;;;;;16.83;8.80;;;;;;;2.85;44.68;100087.81;5116360;28;20046;-93
2022/03/23 02:19:35;;;;;;;15.45;8.45;;;;;;;2.84;45.62;100106.16;5116165;28;20126;-95
2022/03/23 02:22:03;;;;;;;16.35;8.20;;;;;;;2.71;45.22;100106.69;5116166;28;20045;-95
2022/03/23 02:24:31;;;;;;;15.18;9.15;;;;;;;2.53;45.20;100083.47;5116117;28;20040;-94
2022/03/23 02:26:58;;;;;;;16.73;9.43;;;;;;;2.51;46.19;100101.81;5115985;28;20074;-94
2022/03/23 02:29:25;;;;;;;16.88;9.48;;;;;;;2.50;46.08;100086.03;5116116;28;20043;-95
2022/03/23 02:31:51;;;;;;;14.40;8.48;;;;;;;2.42;47.68;100078.81;5115863;28;20051;-94
2022/03/23 02:34:17;;;;;;;16.55;8.75;;;;;;;2.33;47.97;100075.94;5117164;28;20043;-94
2022/03/23 02:36:43;;;;;;;15.27;8.85;;;;;;;2.28;48.72;100097.66;5106530;28;20051;-94
2022/03/23 02:39:11;;;;;;;16.63;9.60;;;;;;;2.32;48.76;100115.28;5108631;28;20040;-94
2022/03/23 02:41:37;;;;;;;14.38;8.52;;;;;;;2.34;48.01;100118.84;5116085;28;20485;-93
2022/03/23 02:44:03;;;;;;;18.52;10.00;;;;;;;2.24;47.99;100080.97;5115579;28;20046;-94
2022/03/23 02:46:35;;;;;;;18.20;8.80;;;;;;;2.21;48.42;100094.91;5115261;28;20031;-94
2022/03/23 02:49:02;;;;;;;15.80;9.20;;;;;;;2.05;48.59;100083.06;5112260;28;20389;-94
2022/03/23 02:51:28;;;;;;;15.93;9.43;;;;;;;2.05;49.13;100082.19;5096050;28;20037;-94
2022/03/23 03:03:03;;;;;;;11.85;7.88;;;;;;;2.38;46.40;100086.56;5113412;27;20387;-95
2022/03/23 03:05:29;;;;;;;19.92;8.30;;;;;;;2.41;45.67;100065.66;5112630;28;20097;-95
2022/03/23 03:10:55;;;;;;;13.68;7.88;;;;;;;2.83;44.88;100084.25;5093073;27;20389;-94
2022/03/23 03:13:21;;;;;;;15.20;7.85;;;;;;;2.91;44.93;100102.84;5092336;28;20076;-94
2022/03/23 03:15:47;;;;;;;15.70;8.30;;;;;;;2.73;44.72;100089.22;5092875;28;20075;-95
2022/03/23 03:18:13;;;;;;;15.95;8.57;;;;;;;2.66;45.73;100091.69;5092756;28;20512;-95
2022/03/23 03:20:39;;;;;;;15.68;7.65;;;;;;;2.49;46.14;100082.50;5092382;28;20040;-94
2022/03/23 03:23:05;;;;;;;14.70;8.35;;;;;;;2.37;47.74;100084.81;5093230;28;20653;-92
2022/03/23 03:25:31;;;;;;;18.70;9.57;;;;;;;2.44;49.11;100120.88;5092247;28;20040;-94
2022/03/23 03:27:58;;;;;;;20.63;9.18;;;;;;;2.23;49.94;100105.41;5092506;28;20046;-93
2022/03/23 03:30:24;;;;;;;17.65;9.13;;;;;;;2.00;50.06;100105.66;5092747;28;20044;-94
2022/03/23 03:32:50;;;;;;;12.73;8.02;;;;;;;2.01;50.37;100090.81;5092793;28;20067;-95
2022/03/23 03:35:16;;;;;;;14.35;8.52;;;;;;;1.87;49.43;100084.28;5091808;28;20101;-96
2022/03/23 03:37:42;;;;;;;13.85;7.38;;;;;;;1.84;48.99;100090.31;5092844;28;20086;-95
2022/03/23 03:40:09;;;;;;;14.95;7.95;;;;;;;1.84;48.50;100085.97;5093023;28;20043;-95
2022/03/23 03:42:36;;;;;;;16.38;8.23;;;;;;;1.87;46.57;100082.56;5092762;28;20083;-96
2022/03/23 03:45:05;;;;;;;14.20;7.53;;;;;;;1.96;47.15;100097.66;5092404;28;20124;-93
2022/03/23 03:47:31;;;;;;;14.35;8.50;;;;;;;2.02;46.49;100077.72;5091931;28;20048;-94
2022/03/23 03:49:57;;;;;;;13.07;7.82;;;;;;;2.21;47.30;100126.38;5091837;28;20043;-94
2022/03/23 03:52:23;;;;;;;14.63;8.27;;;;;;;2.08;47.77;100084.88;5091589;28;20131;-95
2022/03/23 03:54:48;;;;;;;12.35;7.38;;;;;;;2.15;47.21;100092.09;5091663;28;20397;-94
2022/03/23 03:57:14;;;;;;;13.82;8.50;;;;;;;2.11;48.62;100092.84;5092576;28;20048;-94
2022/03/23 03:59:40;;;;;;;18.45;9.00;;;;;;;1.97;50.37;100092.44;5091521;28;20044;-95
2022/03/23 04:02:07;;;;;;;18.90;8.95;;;;;;;1.87;50.96;100106.16;5092047;28;20562;-94
2022/03/23 04:04:33;;;;;;;21.63;9.55;;;;;;;1.75;51.32;100106.66;5092296;28;20102;-94
2022/03/23 04:06:59;;;;;;;14.32;8.55;;;;;;;1.66;52.26;100110.75;5092055;28;20075;-93
2022/03/23 04:09:25;;;;;;;18.52;9.02;;;;;;;1.54;52.88;100119.13;5090894;28;20374;-95
2022/03/23 04:11:51;;;;;;;14.77;8.93;;;;;;;1.62;53.86;100156.97;5091463;28;20045;-94
2022/03/23 04:14:17;;;;;;;14.73;8.65;;;;;;;1.34;54.21;100114.16;5091474;28;20049;-94
2022/03/23 04:16:43;;;;;;;14.35;9.20;;;;;;;1.23;52.93;100110.31;5092654;28;20040;-94
2022/03/23 04:19:10;;;;;;;15.20;8.98;;;;;;;1.25;53.69;100108.63;5090770;28;20097;-95
2022/03/23 04:21:36;;;;;;;12.90;8.23;;;;;;;1.25;52.30;100118.22;5082376;28;20390;-93
2022/03/23 04:24:02;;;;;;;12.75;7.85;;;;;;;1.19;53.07;100106.72;5078111;28;20041;-94
2022/03/23 04:26:28;;;;;;;14.65;7.90;;;;;;;1.29;53.56;100123.59;5077347;28;20067;-94
2022/03/23 04:28:54;;;;;;;16.38;8.95;;;;;;;1.22;54.05;100108.53;5076927;28;20478;-94
2022/03/23 04:31:20;;;;;;;17.90;8.25;;;;;;;1.23;54.48;100102.44;5076990;28;20452;-94
2022/03/23 04:33:46;;;;;;;21.42;9.25;;;;;;;1.30;54.34;100112.31;5077260;28;20044;-95
2022/03/23 04:36:14;;;;;;;16.55;8.05;;;;;;;1.32;52.45;100100.09;5078047;28;20048;-93
2022/03/23 04:38:40;;;;;;;14.98;8.05;;;;;;;1.34;53.03;100108.03;5079134;28;20105;-94
2022/03/23 04:41:06;;;;;;;15.45;8.88;;;;;;;1.50;54.43;100140.88;5079028;28;20040;-94
2022/03/23 04:43:32;;;;;;;14.18;8.88;;;;;;;1.25;54.58;100107.75;5078163;28;20048;-94
2022/03/23 04:45:58;;;;;;;16.23;8.23;;;;;;;1.13;54.93;100108.22;5078282;28;20071;-95
2022/03/23 04:48:24;;;;;;;16.75;8.85;;;;;;;1.10;55.83;100114.25;5078818;28;20040;-94
2022/03/23 04:50:50;;;;;;;14.80;9.43;;;;;;;0.94;56.32;100107.63;5079328;28;20051;-94
2022/03/23 04:53:17;;;;;;;15.30;8.82;;;;;;;0.90;56.34;100105.75;5079860;28;20041;-95
2022/03/23 04:55:43;;;;;;;18.35;9.45;;;;;;;0.90;56.38;100118.84;5079539;28;20098;-93
2022/03/23 04:58:09;;;;;;;12.95;8.57;;;;;;;0.76;55.76;100114.88;5079441;28;20040;-94
2022/03/23 05:00:35;;;;;;;14.43;8.00;;;;;;;0.85;53.69;100125.66;5078350;28;20132;-94
2022/03/23 05:03:01;;;;;;;16.27;8.23;;;;;;;0.95;52.49;100113.75;5078064;28;20048;-94
2022/03/23 05:05:27;;;;;;;14.95;8.50;;;;;;;1.18;52.25;100135.47;5077539;28;20036;-95
2022/03/23 05:07:53;;;;;;;16.52;8.20;;;;;;;1.21;54.01;100138.19;5078264;28;20047;-94
2022/03/23 05:10:20;;;;;;;20.63;9.93;;;;;;;1.09;54.90;100117.72;5078517;28;20045;-95
2022/03/23 05:12:46;;;;;;;18.15;10.13;;;;;;;1.04;55.69;100119.28;5078999;28;20075;-94
2022/03/23 05:15:14;;;;;;;17.55;9.60;;;;;;;0.98;55.54;100124.34;5079045;28;20045;-93
2022/03/23 05:17:40;;;;;;;16.17;9.13;;;;;;;1.05;56.19;100151.63;5079163;28;20494;-94
2022/03/23 05:20:08;;;;;;;17.10;9.30;;;;;;;0.76;56.70;100107.94;5079260;28;20037;-94
2022/03/23 05:22:35;;;;;;;16.65;9.18;;;;;;;0.79;57.83;100134.19;5079895;28;20045;-93
2022/03/23 05:25:03;;;;;;;15.57;9.23;;;;;;;0.70;58.17;100123.41;5079777;28;20079;-94
2022/03/23 05:27:33;;;;;;;19.20;9.93;;;;;;;0.67;58.57;100125.03;5079703;28;20045;-93
2022/03/23 05:29:59;;;;;;;18.10;9.82;;;;;;;0.74;58.15;100134.91;5079565;28;20037;-93
2022/03/23 05:32:25;;;;;;;20.92;9.57;;;;;;;0.61;58.50;100123.09;5078292;28;20560;-92
2022/03/23 05:34:52;;;;;;;15.35;9.02;;;;;;;0.61;58.72;100123.09;5078473;28;20498;-95
2022/03/23 05:37:18;;;;;;;19.20;9.68;;;;;;;0.64;59.50;100117.09;5079653;28;20044;-94
2022/03/23 05:39:45;;;;;;;17.65;9.60;;;;;;;0.66;60.11;100133.72;5079940;28;20051;-93
2022/03/23 05:42:11;;;;;;;18.63;10.07;;;;;;;0.66;59.07;100139.84;5079858;28;20053;-93
2022/03/23 05:44:39;;;;;;;21.85;9.80;;;;;;;0.76;59.04;100131.50;5080521;28;20567;-94
2022/03/23 05:47:05;;;;;;;17.67;9.65;;;;;;;0.68;59.32;100122.47;5079892;28;20072;-94
2022/03/23 05:49:31;;;;;;;20.70;11.02;;;;;;;0.82;58.50;100128.16;5079996;28;20070;-93
2022/03/23 05:51:57;;;;;;;18.23;9.13;;;;;;;0.92;58.95;100135.50;5079724;28;20045;-93
2022/03/23 05:54:23;;;;;;;23.55;10.25;;;;;;;1.12;58.21;100145.75;5079365;28;20098;-95
2022/03/23 05:56:49;;;;;;;23.05;11.32;;;;;;;1.05;57.84;100131.56;5078990;28;20072;-94
2022/03/23 05:59:15;;;;;;;22.13;11.30;;;;;;;1.12;57.46;100138.78;5079351;28;20048;-94
2022/03/23 06:01:43;;;;;;;23.85;11.95;;;;;;;1.23;58.09;100131.25;5079734;28;20497;-95
2022/03/23 06:04:09;;;;;;;23.25;12.40;;;;;;;1.27;57.45;100135.75;5080276;28;20049;-94
2022/03/23 06:06:35;;;;;;;25.75;11.73;;;;;;;1.35;57.09;100134.28;5079650;28;20054;-93
2022/03/23 06:09:01;;;;;;;24.35;11.48;;;;;;;1.66;57.36;100164.09;5081054;28;20505;-95
2022/03/23 06:11:28;;;;;;;20.48;11.57;;;;;;;1.78;56.84;100164.47;5082510;28;20530;-95
2022/03/23 06:13:53;;;;;;;23.00;11.00;;;;;;;1.85;57.21;100149.81;5080438;28;20078;-95
2022/03/23 06:16:23;;;;;;;20.10;10.23;;;;;;;2.08;56.23;100157.47;5079453;28;20131;-93
2022/03/23 06:18:50;;;;;;;;;;;;;;;2.28;54.87;100174.69;5078579;28;20040;-94
2022/03/23 06:21:16;;;;;;;18.00;9.77;;;;;;;2.33;53.68;100145.94;5079642;28;19921;-94
2022/03/23 06:23:42;;;;;;;16.05;9.45;;;;;;;2.31;53.46;100122.28;5080229;28;20051;-94
2022/03/23 06:26:08;;;;;;;20.48;11.15;;;;;;;2.66;53.30;100170.50;5081743;28;20452;-95
2022/03/23 06:28:34;;;;;;;21.10;10.57;;;;;;;2.59;52.56;100139.66;5079755;28;20040;-94
2022/03/23 06:31:00;;;;;;;20.05;10.90;;;;;;;2.72;51.72;100138.25;5078287;28;20045;-94
2022/03/23 06:33:28;;;;;;;20.48;11.02;;;;;;;2.84;51.31;100135.97;5080406;28;20553;-95
2022/03/23 06:35:55;;;;;;;21.20;12.02;;;;;;;2.97;51.47;100129.28;5082452;28;20363;-95
2022/03/23 06:38:21;;;;;;;24.00;11.65;;;;;;;3.09;51.16;100131.31;5081693;28;20048;-93
2022/03/23 06:40:47;;;;;;;21.20;11.25;;;;;;;3.48;51.62;100173.47;5081545;28;20033;-94
2022/03/23 06:43:13;;;;;;;18.65;10.52;;;;;;;3.49;50.76;100146.31;5081460;28;20525;-94
2022/03/23 06:45:40;;;;;;;21.90;11.05;;;;;;;3.69;50.20;100143.28;5080744;28;20065;-94
2022/03/23 06:48:07;;;;;;;27.48;13.20;;;;;;;3.90;49.75;100143.75;5081123;28;20052;-94
2022/03/23 06:50:33;;;;;;;23.55;13.55;;;;;;;4.05;49.51;100144.91;5079934;28;20080;-95
2022/03/23 06:53:00;;;;;;;31.17;13.73;;;;;;;4.18;48.66;100136.41;5080998;28;20044;-94
2022/03/23 06:55:26;;;;;;;31.25;13.10;;;;;;;4.27;47.89;100139.25;5083398;28;20079;-95
2022/03/23 06:57:52;;;;;;;22.95;13.70;;;;;;;4.31;47.63;100148.09;5085243;28;20067;-94
2022/03/23 07:00:21;;;;;;;23.17;13.57;;;;;;;4.52;47.48;100161.69;5085267;28;20041;-95
2022/03/23 07:02:48;;;;;;;25.87;12.73;;;;;;;4.51;47.02;100137.94;5085090;28;20094;-95
2022/03/23 07:05:16;;;;;;;25.17;12.48;;;;;;;4.89;46.72;100174.69;5085733;28;20135;-95
2022/03/23 07:09:31;;;;;;;21.50;11.77;;;;;;;4.83;46.49;100129.75;5085772;28;20072;-95
2022/03/23 07:10:34;;;;;;;21.73;11.82;;;;;;;5.10;46.24;100130.25;5085301;28;20041;-94
2022/03/23 07:13:01;;;;;;;21.42;11.48;;;;;;;5.46;45.62;100160.69;5086561;28;20501;-94
2022/03/23 07:15:27;;;;;;;20.88;10.88;;;;;;;5.49;45.17;100123.84;5085810;28;20068;-94
2022/03/23 07:17:53;;;;;;;20.52;11.73;;;;;;;5.75;45.30;100136.53;5084651;28;20130;-95
2022/03/23 07:20:19;;;;;;;22.90;11.48;;;;;;;6.04;44.48;100144.00;5083855;28;20045;-94
2022/03/23 07:22:45;;;;;;;20.95;10.80;;;;;;;6.07;43.97;100130.81;5081301;28;20032;-94
2022/03/23 07:25:12;;;;;;;21.33;10.93;;;;;;;6.14;43.63;100130.06;5081421;28;20086;-95
2022/03/23 07:27:39;;;;;;;19.40;10.98;;;;;;;6.23;43.74;100124.88;5084544;28;20059;-95
2022/03/23 07:30:07;;;;;;;20.00;11.48;;;;;;;6.37;43.53;100122.38;5085561;28;20052;-95
2022/03/23 07:32:34;;;;;;;23.15;10.93;;;;;;;6.80;43.49;100151.94;5084900;28;20049;-95
2022/03/23 07:35:00;;;;;;;19.92;11.10;;;;;;;6.95;43.40;100143.28;5085044;28;20049;-95
2022/03/23 07:37:26;;;;;;;21.38;11.48;;;;;;;7.02;42.72;100117.75;5085217;28;20044;-94
2022/03/23 07:39:52;;;;;;;20.17;11.50;;;;;;;7.28;42.10;100132.09;5084826;28;20063;-95
2022/03/23 07:42:18;;;;;;;21.52;10.32;;;;;;;7.41;41.88;100117.19;5082889;28;20134;-95
2022/03/23 07:44:46;;;;;;;19.35;11.60;;;;;;;7.55;41.30;100117.31;5085469;28;20053;-94
2022/03/23 07:47:12;;;;;;;21.15;11.40;;;;;;;7.86;41.54;100139.56;5085999;28;20096;-95
2022/03/23 07:49:39;;;;;;;17.92;10.48;;;;;;;7.98;41.10;100131.69;5084818;28;20048;-94
2022/03/23 07:52:05;;;;;;;20.25;11.93;;;;;;;8.10;40.80;100117.63;5083787;28;20070;-94
2022/03/23 07:54:32;;;;;;;19.25;10.73;;;;;;;8.22;40.61;100109.72;5085079;28;20072;-96
2022/03/23 07:56:58;;;;;;;19.27;11.80;;;;;;;8.58;40.35;100133.72;5088195;28;20044;-95
2022/03/23 07:59:24;;;;;;;25.17;10.95;;;;;;;8.73;39.78;100124.94;5089275;28;20041;-95
2022/03/23 08:01:52;;;;;;;22.98;11.45;;;;;;;8.94;39.65;100132.94;5087803;28;20044;-95
2022/03/23 08:04:18;;;;;;;21.73;11.82;;;;;;;9.03;39.44;100110.81;5087801;28;20048;-95
2022/03/23 08:06:44;;;;;;;20.73;11.77;;;;;;;9.29;39.34;100133.84;5088643;28;20041;-95
2022/03/23 08:09:10;;;;;;;26.52;11.90;;;;;;;9.42;38.56;100122.31;5087630;28;20068;-95
2022/03/23 08:11:37;;;;;;;21.98;12.00;;;;;;;9.49;38.52;100117.91;5087986;28;20040;-95
2022/03/23 08:14:05;;;;;;;22.13;12.07;;;;;;;9.63;38.20;100111.69;5090277;28;20051;-95
2022/03/23 08:16:31;;;;;;;20.67;11.70;;;;;;;9.82;37.60;100112.53;5091315;28;20048;-94
2022/03/23 08:19:02;;;;;;;19.50;11.80;;;;;;;9.93;37.40;100104.53;5087700;28;20044;-95
2022/03/23 08:21:32;;;;;;;20.45;11.63;;;;;;;10.16;37.35;100107.09;5086781;28;20079;-96
2022/03/23 08:23:58;;;;;;;24.13;11.93;;;;;;;10.48;36.80;100128.25;5086400;28;20082;-95
2022/03/23 08:26:24;;;;;;;21.50;12.15;;;;;;;10.52;36.48;100121.16;5085287;28;20386;-94
2022/03/23 08:28:51;;;;;;;21.00;12.05;;;;;;;10.55;36.19;100093.66;5085085;28;20053;-95
2022/03/23 08:31:18;;;;;;;17.50;10.80;;;;;;;10.65;35.26;100088.28;5085888;28;20048;-94
2022/03/23 08:33:45;;;;;;;22.42;11.35;;;;;;;10.94;34.05;100096.94;5088847;28;20041;-95
2022/03/23 08:36:12;;;;;;;16.15;10.00;;;;;;;11.24;29.32;100090.50;5087486;28;20044;-95
2022/03/23 08:38:38;;;;;;;15.93;9.30;;;;;;;11.44;28.82;100074.34;5087242;28;20056;-95
2022/03/23 08:41:05;;;;;;;14.40;9.93;;;;;;;11.71;29.86;100078.53;5088150;28;20045;-94
2022/03/23 08:43:34;;;;;;;15.07;10.10;;;;;;;11.52;28.04;100088.47;5084785;28;20093;-96
2022/03/23 08:46:00;;;;;;;17.25;9.57;;;;;;;11.65;27.95;100074.13;5085645;28;20040;-95
2022/03/23 08:48:26;;;;;;;14.25;9.73;;;;;;;11.76;28.69;100070.47;5085109;28;20044;-94
2022/03/23 08:50:52;;;;;;;16.73;10.30;;;;;;;11.87;28.47;100064.09;5086023;28;20045;-94
2022/03/23 08:53:20;;;;;;;16.17;10.32;;;;;;;12.23;27.52;100085.03;5088021;28;20059;-95
2022/03/23 08:55:47;;;;;;;18.02;10.68;;;;;;;12.44;27.13;100075.88;5085572;28;20040;-95
2022/03/23 08:58:15;;;;;;;18.30;10.35;;;;;;;12.27;26.82;100057.41;5083712;28;20052;-95
2022/03/23 09:00:41;;;;;;;17.13;10.82;;;;;;;12.33;27.52;100058.22;5083741;28;20044;-93
2022/03/23 09:03:08;;;;;;;20.30;10.52;;;;;;;12.59;27.65;100056.97;5085658;28;20068;-94
2022/03/23 09:05:34;;;;;;;16.90;10.70;;;;;;;12.70;27.04;100064.81;5082564;28;20049;-96
2022/03/23 09:08:01;;;;;;;16.48;10.57;;;;;;;12.67;26.27;100073.75;5081940;28;20122;-94
2022/03/23 09:10:29;;;;;;;18.13;10.57;;;;;;;12.92;26.59;100047.59;5084158;28;20040;-94
2022/03/23 09:12:55;;;;;;;17.67;10.35;;;;;;;13.11;26.29;100050.81;5085370;28;20049;-94
2022/03/23 09:15:23;;;;;;;17.05;10.13;;;;;;;13.13;26.01;100058.81;5084528;28;20067;-96
2022/03/23 09:17:49;;;;;;;16.75;10.35;;;;;;;13.37;25.92;100046.84;5083810;28;20052;-95
2022/03/23 09:20:16;;;;;;;16.52;11.00;;;;;;;13.60;25.02;100046.41;5082937;28;20141;-95
2022/03/23 09:22:45;;;;;;;18.08;11.10;;;;;;;13.55;25.05;100042.94;5081412;28;20037;-95
2022/03/23 09:25:13;;;;;;;15.05;10.50;;;;;;;13.94;25.12;100068.03;5083536;28;20051;-95
2022/03/23 09:27:43;;;;;;;18.58;10.77;;;;;;;14.02;25.10;100049.16;5082105;28;20131;-96
2022/03/23 09:30:11;;;;;;;18.33;10.63;;;;;;;13.70;26.40;100049.78;5079787;28;20041;-96
2022/03/23 09:32:38;;;;;;;18.03;10.37;;;;;;;13.81;26.04;100030.84;5081658;28;20045;-95
2022/03/23 09:35:05;;;;;;;17.67;10.18;;;;;;;14.12;25.48;100052.53;5082831;28;20045;-96
2022/03/23 09:40:32;;;;;;;16.38;9.95;;;;;;;14.15;25.45;100023.03;5157181;27;20395;-96
2022/03/23 09:42:59;;;;;;;16.33;10.50;;;;;;;14.22;25.86;100040.69;5155356;27;20486;-95
2022/03/23 09:48:16;;;;;;;16.65;10.35;;;;;;;14.63;24.90;100013.94;5100872;27;20121;-95
2022/03/23 09:50:44;;;;;;;17.38;11.23;;;;;;;14.64;25.64;100018.38;5098724;28;20146;-94
2022/03/23 09:53:11;;;;;;;15.70;10.07;;;;;;;14.80;25.03;100022.47;5100039;28;20044;-93
2022/03/23 09:55:37;;;;;;;16.40;10.88;;;;;;;14.57;24.03;100009.59;5089111;28;20044;-95
2022/03/23 09:58:06;;;;;;;14.48;9.60;;;;;;;15.16;24.88;100028.69;5095755;28;20044;-96
2022/03/23 10:00:37;;;;;;;14.30;9.63;;;;;;;15.32;23.48;100001.50;5096784;28;20505;-94
2022/03/23 10:03:39;;;;;;;14.45;9.90;;;;;;;15.67;23.37;100002.34;5100976;28;20070;-94
2022/03/23 10:06:36;;;;;;;15.35;10.27;;;;;;;15.78;22.07;100021.72;5097682;28;20058;-94
2022/03/23 10:09:45;;;;;;;14.32;9.82;;;;;;;15.68;21.42;99986.22;5090991;28;20370;-95
2022/03/23 10:12:47;;;;;;;16.38;9.98;;;;;;;15.79;21.01;100010.06;5087916;28;20093;-94
2022/03/23 10:15:56;;;;;;;14.43;9.88;;;;;;;15.84;21.61;100009.94;5096065;28;20019;-94
2022/03/23 10:18:51;;;;;;;16.05;9.50;;;;;;;15.80;21.04;99990.34;5098667;28;20100;-94
2022/03/23 10:21:21;;;;;;;14.73;9.35;;;;;;;15.83;20.76;99995.66;5098034;28;20033;-96
2022/03/23 10:24:24;;;;;;;15.57;9.02;;;;;;;16.04;21.09;99998.63;5098312;28;20512;-94
2022/03/23 10:26:50;;;;;;;14.68;9.93;;;;;;;15.64;20.83;99983.66;5096807;28;20024;-96
2022/03/23 10:29:19;;;;;;;14.00;10.32;;;;;;;15.67;21.02;99962.09;5096943;28;20105;-94
2022/03/23 10:31:45;;;;;;;15.00;9.20;;;;;;;15.73;20.40;99965.53;5096866;28;20037;-94
2022/03/23 10:34:11;;;;;;;14.98;9.48;;;;;;;15.78;20.38;99970.75;5097281;28;20041;-92
2022/03/23 10:36:51;;;;;;;17.27;9.50;;;;;;;15.73;20.68;99960.16;5097209;28;20048;-93
2022/03/23 10:39:19;;;;;;;14.07;9.18;;;;;;;15.70;19.62;99967.38;5097614;28;20044;-95
2022/03/23 10:41:56;;;;;;;13.15;9.13;;;;;;;15.96;20.00;99994.38;5098950;28;20090;-95
2022/03/23 10:44:23;;;;;;;15.85;10.63;;;;;;;15.56;20.24;99968.66;5096603;28;20501;-94
2022/03/23 10:46:48;;;;;;;14.65;9.38;;;;;;;15.94;20.49;99980.13;5093416;28;20048;-93
2022/03/23 10:49:15;;;;;;;16.70;9.10;;;;;;;15.97;19.82;99971.09;5092985;28;20131;-93
2022/03/23 10:51:43;;;;;;;15.40;9.40;;;;;;;15.98;19.74;99962.09;5092699;28;20473;-94
2022/03/23 10:54:16;;;;;;;14.63;9.48;;;;;;;16.08;20.12;99970.78;5091060;28;20048;-95
2022/03/23 10:56:42;;;;;;;16.25;10.02;;;;;;;15.84;20.24;99954.47;5088323;28;20049;-94
2022/03/23 10:59:21;;;;;;;15.05;9.93;;;;;;;15.85;20.55;99974.13;5078894;28;20525;-96
2022/03/23 11:02:03;;;;;;;15.25;9.07;;;;;;;16.13;20.36;99971.50;5077085;28;20132;-95
2022/03/23 11:04:30;;;;;;;14.18;9.35;;;;;;;15.94;20.40;99955.06;5075519;28;20074;-94
2022/03/23 11:06:57;;;;;;;12.88;8.35;;;;;;;15.96;19.74;99948.75;5077015;28;20041;-94
2022/03/23 11:18:32;;;;;;;18.27;9.75;;;;;;;15.95;20.15;99948.78;5107344;27;20883;-94
2022/03/23 11:20:58;;;;;;;14.02;9.15;;;;;;;16.17;20.50;99943.66;5092258;28;20543;-95
2022/03/23 11:23:25;;;;;;;13.10;9.02;;;;;;;16.08;19.58;99936.75;5087271;28;20104;-93
2022/03/23 11:25:53;;;;;;;15.05;8.88;;;;;;;16.09;19.96;99930.47;5080484;28;20044;-92
2022/03/23 11:28:20;;;;;;;13.73;9.25;;;;;;;16.16;20.54;99918.63;5087873;28;20041;-91
2022/03/23 11:30:47;;;;;;;13.32;9.10;;;;;;;16.12;20.24;99919.63;5088702;28;20051;-92
2022/03/23 11:33:16;;;;;;;12.88;9.00;;;;;;;16.35;19.95;99908.19;5077575;28;20067;-94
2022/03/23 11:35:51;;;;;;;14.52;9.50;;;;;;;16.19;19.87;99902.41;5071104;28;20041;-94
2022/03/23 11:38:18;;;;;;;14.20;9.77;;;;;;;16.21;20.21;99902.38;5074525;28;20498;-94
2022/03/23 11:40:45;;;;;;;15.68;9.13;;;;;;;16.52;21.06;99923.72;5070818;28;20044;-93
2022/03/23 11:43:12;;;;;;;14.68;9.13;;;;;;;16.27;19.77;99910.22;5071586;28;20495;-93
2022/03/23 11:45:39;;;;;;;13.93;8.73;;;;;;;16.27;20.00;99882.53;5071659;28;20051;-93
2022/03/23 11:48:14;;;;;;;14.45;10.20;;;;;;;16.41;21.90;99901.72;5071330;28;20079;-94
2022/03/23 11:50:58;;;;;;;13.27;9.23;;;;;;;16.25;19.74;99881.69;5071493;28;20038;-94